createdAt,value
2022-08-05T06:37:57.543Z,97936.00
2022-08-05T06:43:57.807Z,97954.00
2022-08-05T06:48:55.953Z,97943.00
2022-08-05T06:54:04.093Z,97946.00
2022-08-05T06:59:09.346Z,97946.00
2022-08-05T07:04:14.051Z,97959.00
2022-08-05T07:09:17.162Z,97979.00
2022-08-05T07:14:41.363Z,98003.00
2022-08-05T07:20:31.012Z,97980.00
2022-08-05T07:25:54.969Z,98012.00
2022-08-05T07:30:34.471Z,98018.00
2022-08-05T07:36:05.385Z,98028.00
2022-08-05T07:41:16.501Z,98035.00
2022-08-05T07:46:27.101Z,97985.00
2022-08-05T07:51:37.079Z,98002.00
2022-08-05T07:57:02.007Z,98023.00
2022-08-05T08:02:17.098Z,98025.00
2022-08-05T08:07:22.704Z,98035.00
2022-08-05T08:12:35.639Z,98036.00
2022-08-05T08:17:52.384Z,98037.00
2022-08-05T08:22:59.231Z,98048.00
2022-08-05T08:28:05.913Z,98041.00
2022-08-05T08:33:20.700Z,98050.00
2022-08-05T08:38:32.270Z,98044.00
2022-08-05T08:45:23.124Z,98047.00
2022-08-05T08:50:03.887Z,98043.00
2022-08-05T08:54:28.388Z,98060.00
2022-08-05T08:59:33.676Z,98054.00
2022-08-05T09:04:57.819Z,98055.00
2022-08-05T09:10:03.822Z,98044.00
2022-08-05T09:15:08.570Z,98035.00
2022-08-05T09:20:12.790Z,98045.00
2022-08-05T09:26:01.205Z,98039.00
2022-08-05T09:31:44.251Z,98029.00
2022-08-05T09:36:55.403Z,98030.00
2022-08-05T09:42:04.655Z,98030.00
2022-08-05T09:47:16.015Z,98022.00
2022-08-05T09:52:26.286Z,98023.00
2022-08-05T09:57:45.505Z,98015.00
2022-08-05T10:02:58.247Z,98016.00
2022-08-05T10:08:10.898Z,98002.00
2022-08-05T10:13:47.457Z,98003.00
2022-08-05T10:18:51.740Z,98006.00
2022-08-05T10:24:00.444Z,98024.00
2022-08-05T10:29:04.162Z,98001.00
2022-08-05T10:34:10.870Z,97986.00
2022-08-05T10:39:24.958Z,98009.00
2022-08-05T10:44:50.959Z,98013.00
2022-08-05T10:50:20.631Z,98002.00
2022-08-05T10:56:05.236Z,97999.00
2022-08-05T11:01:28.478Z,97999.00
2022-08-05T11:07:01.844Z,98002.00
2022-08-05T11:12:04.919Z,97986.00
2022-08-05T11:17:59.518Z,97992.00
2022-08-05T11:23:21.484Z,97997.00
2022-08-05T11:28:27.999Z,97991.00
2022-08-05T11:33:47.899Z,97997.00
2022-08-05T11:38:54.548Z,97986.00
2022-08-05T11:44:05.673Z,97986.00
2022-08-05T11:49:13.680Z,97980.00
2022-08-05T11:54:33.355Z,97986.00
2022-08-05T11:59:41.290Z,97988.00
2022-08-05T12:04:59.220Z,97992.00
2022-08-05T12:10:11.476Z,97981.00
2022-08-05T12:15:33.255Z,97976.00
2022-08-05T12:20:41.512Z,97974.00
2022-08-05T12:25:56.639Z,97977.00
2022-08-05T12:31:02.014Z,97967.00
2022-08-05T12:36:08.322Z,97974.00
2022-08-05T12:41:14.202Z,97966.00
2022-08-05T12:46:28.132Z,97976.00
2022-08-05T12:52:11.175Z,97973.00
2022-08-05T12:57:12.953Z,97999.00
2022-08-05T13:02:42.209Z,97987.00
2022-08-05T13:07:59.832Z,97962.00
2022-08-05T13:13:08.975Z,97970.00
2022-08-05T13:18:11.875Z,97969.00
2022-08-05T13:23:23.210Z,97970.00
2022-08-05T13:28:26.020Z,97977.00
2022-08-05T13:34:21.230Z,97972.00
2022-08-05T13:38:51.791Z,97967.00
2022-08-05T13:43:55.459Z,97952.00
2022-08-05T13:49:00.923Z,97937.00
2022-08-05T13:54:12.925Z,97944.00
2022-08-05T13:59:20.381Z,97951.00
2022-08-05T14:04:42.396Z,97935.00
2022-08-05T14:09:55.958Z,97954.00
2022-08-05T14:14:58.828Z,97954.00
2022-08-05T14:20:04.647Z,97946.00
2022-08-05T14:25:21.666Z,97930.00
2022-08-05T14:30:25.558Z,97937.00
2022-08-05T14:35:37.201Z,97937.00
2022-08-05T14:40:55.283Z,97942.00
2022-08-05T14:45:59.382Z,97951.00
2022-08-05T14:51:02.139Z,97961.00
2022-08-05T14:56:06.240Z,97948.00
2022-08-05T15:01:16.265Z,97954.00
2022-08-05T15:06:20.370Z,97948.00
2022-08-05T15:11:52.845Z,97946.00
2022-08-05T15:16:55.926Z,97962.00
2022-08-05T15:22:01.405Z,97974.00
2022-08-05T15:27:04.419Z,97971.00
2022-08-05T15:32:12.013Z,97985.00
2022-08-05T15:37:19.374Z,97991.00
2022-08-05T15:42:53.575Z,97995.00
2022-08-05T15:47:59.720Z,98000.00
2022-08-05T15:53:05.570Z,97999.00
2022-08-05T15:58:09.355Z,98005.00
2022-08-05T16:03:19.367Z,98000.00
2022-08-05T16:08:22.444Z,98017.00
2022-08-05T16:13:34.389Z,98028.00
2022-08-05T16:18:51.790Z,98025.00
2022-08-05T16:23:58.070Z,98022.00
2022-08-05T16:29:04.304Z,98030.00
2022-08-05T16:34:11.173Z,98044.00
2022-08-05T16:39:14.358Z,98050.00
2022-08-05T16:44:18.465Z,98064.00
2022-08-05T16:49:23.899Z,98071.00
2022-08-05T16:54:32.781Z,98070.00
2022-08-05T16:59:35.771Z,98125.00
2022-08-05T17:04:58.689Z,98146.00
2022-08-05T17:10:01.454Z,98158.00
2022-08-05T17:15:06.149Z,98189.00
2022-08-05T17:20:14.585Z,98206.00
2022-08-05T17:25:22.271Z,98208.00
2022-08-05T17:30:42.602Z,98231.00
2022-08-05T17:36:08.721Z,98253.00
2022-08-05T17:42:16.854Z,98262.00
2022-08-05T17:46:39.332Z,98262.00
2022-08-05T17:51:42.839Z,98268.00
2022-08-05T17:56:49.200Z,98286.00
2022-08-05T18:01:54.179Z,98303.00
2022-08-05T18:07:00.375Z,98324.00
2022-08-05T18:12:04.951Z,98337.00
2022-08-05T18:17:58.613Z,98346.00
2022-08-05T18:22:46.013Z,98362.00
2022-08-05T18:27:53.923Z,98367.00
2022-08-05T18:32:59.936Z,98363.00
2022-08-05T18:38:03.422Z,98373.00
2022-08-05T18:43:09.093Z,98393.00
2022-08-05T18:48:31.233Z,98414.00
2022-08-05T18:53:42.872Z,98414.00
2022-08-05T18:58:48.443Z,98430.00
2022-08-05T19:03:56.613Z,98430.00
2022-08-05T19:09:01.453Z,98430.00
2022-08-05T19:14:15.243Z,98432.00
2022-08-05T19:19:27.077Z,98439.00
2022-08-05T19:24:34.678Z,98452.00
2022-08-05T19:29:38.830Z,98443.00
2022-08-05T19:34:41.914Z,98452.00
2022-08-05T19:39:58.882Z,98464.00
2022-08-05T19:45:01.644Z,98465.00
2022-08-05T19:50:07.543Z,98475.00
2022-08-05T19:56:15.367Z,98472.00
2022-08-05T20:00:35.958Z,98477.00
2022-08-05T20:05:49.947Z,98470.00
2022-08-05T20:10:54.132Z,98476.00
2022-08-05T20:15:57.687Z,98496.00
2022-08-05T20:21:02.416Z,98509.00
2022-08-05T20:26:08.139Z,98523.00
2022-08-05T20:31:21.956Z,98522.00
2022-08-05T20:36:31.225Z,98512.00
2022-08-05T20:41:44.238Z,98516.00
2022-08-05T20:46:48.341Z,98546.00
2022-08-05T20:51:53.331Z,98559.00
2022-08-05T20:56:58.047Z,98579.00
2022-08-05T21:02:00.996Z,98591.00
2022-08-05T21:07:04.268Z,98599.00
2022-08-05T21:12:10.204Z,98594.00
2022-08-05T21:17:14.773Z,98571.00
2022-08-05T21:22:21.965Z,98571.00
2022-08-05T21:27:27.389Z,98543.00
2022-08-05T21:32:30.758Z,98544.00
2022-08-05T21:37:35.073Z,98572.00
2022-08-05T21:42:45.721Z,98596.00
2022-08-05T21:47:57.111Z,98623.00
2022-08-05T21:53:08.465Z,98636.00
2022-08-05T21:58:20.314Z,98642.00
2022-08-05T22:03:52.561Z,98638.00
2022-08-05T22:08:56.464Z,98643.00
2022-08-05T22:14:19.653Z,98626.00
2022-08-05T22:20:03.576Z,98635.00
2022-08-05T22:25:03.932Z,98686.00
2022-08-05T22:30:16.116Z,98721.00
2022-08-05T22:35:19.992Z,98717.00
2022-08-05T22:40:22.941Z,98680.00
